createdAt,value
2023-03-07T00:00:13.421Z,76.37
2023-03-07T00:02:42.072Z,76.49
2023-03-07T00:05:12.610Z,76.61
2023-03-07T00:07:43.455Z,76.35
2023-03-07T00:10:12.867Z,76.63
2023-03-07T00:12:41.059Z,77.18
2023-03-07T00:15:10.462Z,77.37
2023-03-07T00:17:39.339Z,78.07
2023-03-07T00:20:11.221Z,77.50
2023-03-07T00:22:39.562Z,77.33
2023-03-07T00:25:10.519Z,77.27
2023-03-07T00:27:38.839Z,76.88
2023-03-07T00:30:08.090Z,76.64
2023-03-07T00:32:36.345Z,76.33
2023-03-07T00:35:04.831Z,77.06
2023-03-07T00:37:33.049Z,77.13
2023-03-07T00:40:01.322Z,76.76
2023-03-07T00:42:31.049Z,76.63
2023-03-07T00:44:59.181Z,76.77
2023-03-07T00:47:27.969Z,76.77
2023-03-07T00:49:56.748Z,76.48
2023-03-07T00:52:24.979Z,76.51
2023-03-07T00:54:53.470Z,75.63
2023-03-07T00:57:21.880Z,75.48
2023-03-07T00:59:51.461Z,74.79
2023-03-07T01:02:20.143Z,74.35
2023-03-07T01:04:48.497Z,74.11
2023-03-07T01:07:17.174Z,73.92
2023-03-07T01:09:47.250Z,73.79
2023-03-07T01:12:16.381Z,73.70
2023-03-07T01:14:44.519Z,73.43
2023-03-07T01:17:14.004Z,73.61
2023-03-07T01:19:41.880Z,73.18
2023-03-07T01:22:09.976Z,72.69
2023-03-07T01:24:38.108Z,72.05
2023-03-07T01:27:06.718Z,71.70
2023-03-07T01:29:34.926Z,71.13
2023-03-07T01:32:03.466Z,70.82
2023-03-07T01:34:33.593Z,70.19
2023-03-07T01:37:01.955Z,70.58
2023-03-07T01:39:31.010Z,70.35
2023-03-07T01:42:03.686Z,70.36
2023-03-07T01:44:52.555Z,70.12
2023-03-07T01:47:20.878Z,69.62
2023-03-07T01:49:56.626Z,69.43
2023-03-07T01:52:29.394Z,69.41
2023-03-07T01:55:04.456Z,68.33
2023-03-07T01:57:35.697Z,67.36
2023-03-07T02:00:10.864Z,66.77
2023-03-07T02:02:44.975Z,66.65
2023-03-07T02:05:23.423Z,66.49
2023-03-07T02:07:53.852Z,66.72
2023-03-07T02:10:27.688Z,66.46
2023-03-07T02:12:56.270Z,66.36
2023-03-07T02:15:24.703Z,66.92
2023-03-07T02:17:53.740Z,66.80
2023-03-07T02:20:37.463Z,66.79
2023-03-07T02:23:13.641Z,67.24
2023-03-07T02:25:46.145Z,67.18
2023-03-07T02:28:19.214Z,66.86
2023-03-07T02:30:56.560Z,66.90
2023-03-07T02:33:25.960Z,66.48
2023-03-07T02:36:06.951Z,66.60
2023-03-07T02:38:42.635Z,66.27
2023-03-07T02:41:13.417Z,66.01
2023-03-07T02:43:43.751Z,65.89
2023-03-07T02:46:12.873Z,65.84
2023-03-07T02:48:41.708Z,65.82
2023-03-07T02:51:10.289Z,65.99
2023-03-07T02:53:39.462Z,66.09
2023-03-07T02:56:08.478Z,65.82
2023-03-07T02:58:36.587Z,65.69
2023-03-07T03:01:06.684Z,65.14
2023-03-07T03:03:34.857Z,64.89
2023-03-07T03:06:04.079Z,64.44
2023-03-07T03:08:33.194Z,64.46
2023-03-07T03:11:01.859Z,64.25
2023-03-07T03:13:30.958Z,63.84
2023-03-07T03:15:59.940Z,64.24
2023-03-07T03:18:31.105Z,64.70
2023-03-07T03:21:01.391Z,64.31
2023-03-07T03:23:29.763Z,64.26
2023-03-07T03:26:00.149Z,62.94
2023-03-07T03:28:31.650Z,62.95
2023-03-07T03:31:01.423Z,63.34
2023-03-07T03:33:33.089Z,63.19
2023-03-07T03:36:06.514Z,62.85
2023-03-07T03:38:36.068Z,63.30
2023-03-07T03:41:08.341Z,63.52
2023-03-07T03:43:38.845Z,63.57
2023-03-07T03:46:08.032Z,63.57
2023-03-07T03:48:39.369Z,63.32
2023-03-07T03:51:10.555Z,63.46
2023-03-07T03:53:40.711Z,63.35
2023-03-07T03:56:12.551Z,62.99
2023-03-07T03:58:42.085Z,62.82
2023-03-07T04:01:13.149Z,63.01
2023-03-07T04:03:44.962Z,63.25
2023-03-07T04:06:15.736Z,62.46
2023-03-07T04:08:44.512Z,62.65
2023-03-07T04:11:13.575Z,62.92
2023-03-07T04:13:41.903Z,62.50
2023-03-07T04:16:10.482Z,62.39
2023-03-07T04:18:40.212Z,62.40
2023-03-07T04:21:11.031Z,61.91
2023-03-07T04:23:40.007Z,62.34
2023-03-07T04:26:09.523Z,62.13
2023-03-07T04:28:46.393Z,61.60
2023-03-07T04:31:21.114Z,61.92
2023-03-07T04:33:50.334Z,61.68
2023-03-07T04:36:20.572Z,62.19
2023-03-07T04:38:50.120Z,61.61
2023-03-07T04:41:21.206Z,61.71
2023-03-07T04:43:52.596Z,61.90
2023-03-07T04:46:21.859Z,61.46
2023-03-07T04:48:50.602Z,62.39
2023-03-07T04:51:20.808Z,62.45
2023-03-07T04:53:50.787Z,62.54
2023-03-07T04:56:19.300Z,62.42
2023-03-07T04:58:48.967Z,63.21
2023-03-07T05:01:19.789Z,63.36
2023-03-07T05:03:49.075Z,63.49
2023-03-07T05:06:20.580Z,63.22
2023-03-07T05:08:51.621Z,63.97
2023-03-07T05:11:19.987Z,64.42
2023-03-07T05:13:48.784Z,65.73
2023-03-07T05:16:20.483Z,66.44
2023-03-07T05:18:49.740Z,65.89
2023-03-07T05:21:18.276Z,65.19
2023-03-07T05:23:47.974Z,64.68
2023-03-07T05:26:16.586Z,64.10
2023-03-07T05:28:44.836Z,64.37
2023-03-07T05:31:13.302Z,64.33
2023-03-07T05:33:42.769Z,65.45
2023-03-07T05:36:13.400Z,65.92
2023-03-07T05:38:44.902Z,67.51
2023-03-07T05:41:14.711Z,67.69
2023-03-07T05:43:44.990Z,68.07
2023-03-07T05:46:13.672Z,68.36
2023-03-07T05:48:41.980Z,68.77
2023-03-07T05:51:10.591Z,68.70
2023-03-07T05:53:38.953Z,68.90
2023-03-07T05:56:08.921Z,69.32
2023-03-07T05:58:39.836Z,68.44
2023-03-07T06:01:10.320Z,68.14
2023-03-07T06:03:38.690Z,68.29
2023-03-07T06:06:08.545Z,67.93
2023-03-07T06:08:36.620Z,67.97
2023-03-07T06:11:06.930Z,67.50
2023-03-07T06:13:40.207Z,67.22
2023-03-07T06:16:10.301Z,66.40
2023-03-07T06:18:41.315Z,66.22
2023-03-07T06:21:11.673Z,65.75
2023-03-07T06:23:44.539Z,65.61
2023-03-07T06:26:15.997Z,64.67
2023-03-07T06:28:49.366Z,65.04
2023-03-07T06:31:20.342Z,65.35
2023-03-07T06:33:50.552Z,65.60
2023-03-07T06:36:21.804Z,65.32
2023-03-07T06:38:57.280Z,65.20
2023-03-07T06:43:43.045Z,64.64
2023-03-07T06:46:12.068Z,65.21
2023-03-07T06:48:43.774Z,65.60
2023-03-07T06:51:17.544Z,66.53
2023-03-07T06:53:48.595Z,66.46
2023-03-07T06:56:18.030Z,66.19
2023-03-07T06:58:48.736Z,65.59
2023-03-07T07:01:20.107Z,65.23
2023-03-07T07:03:52.711Z,64.91
2023-03-07T07:06:22.021Z,64.72
2023-03-07T07:08:55.596Z,64.75
2023-03-07T07:11:26.625Z,64.68
2023-03-07T07:13:57.639Z,63.95
2023-03-07T07:16:26.321Z,64.43
2023-03-07T07:18:55.137Z,63.87
2023-03-07T07:21:24.110Z,63.37
2023-03-07T07:23:53.635Z,62.96
2023-03-07T07:26:22.530Z,63.02
2023-03-07T07:28:52.034Z,63.04
2023-03-07T07:31:23.112Z,63.50
2023-03-07T07:33:52.338Z,63.21
2023-03-07T07:36:24.747Z,63.54
2023-03-07T07:38:55.908Z,63.86
2023-03-07T07:41:25.374Z,63.59
2023-03-07T07:43:57.867Z,63.72
2023-03-07T07:46:38.536Z,63.93
2023-03-07T07:49:10.055Z,64.64
2023-03-07T07:51:41.239Z,64.39
2023-03-07T07:54:10.918Z,64.19
2023-03-07T07:56:40.106Z,64.87
2023-03-07T07:59:09.616Z,65.14
2023-03-07T08:01:40.310Z,65.23
2023-03-07T08:04:10.161Z,64.92
2023-03-07T08:06:41.513Z,64.43
2023-03-07T08:09:10.100Z,64.15
2023-03-07T08:11:38.524Z,63.62
2023-03-07T08:14:09.433Z,63.82
2023-03-07T08:16:40.913Z,63.98
2023-03-07T08:19:10.868Z,64.10
2023-03-07T08:21:39.367Z,64.11
2023-03-07T08:24:08.935Z,64.18
2023-03-07T08:26:38.990Z,63.97
2023-03-07T08:29:09.362Z,64.23
2023-03-07T08:31:40.260Z,64.25
2023-03-07T08:34:08.887Z,63.92
2023-03-07T08:36:37.019Z,63.72
2023-03-07T08:39:06.421Z,63.80
2023-03-07T08:41:34.893Z,64.86
2023-03-07T08:44:04.220Z,65.29
2023-03-07T08:46:32.412Z,65.98
2023-03-07T08:49:02.372Z,66.12
2023-03-07T08:51:31.253Z,66.08
2023-03-07T08:54:00.721Z,67.07
2023-03-07T08:56:30.366Z,67.05
2023-03-07T08:58:59.308Z,66.79
2023-03-07T09:01:28.558Z,66.37
2023-03-07T09:03:57.824Z,66.29
2023-03-07T09:06:28.737Z,66.74
2023-03-07T09:08:58.892Z,67.72
2023-03-07T09:11:29.004Z,67.97
2023-03-07T09:13:58.589Z,67.30
2023-03-07T09:16:27.622Z,66.99
2023-03-07T09:18:56.606Z,66.84
2023-03-07T09:21:30.822Z,67.20
2023-03-07T09:23:59.959Z,66.73
2023-03-07T09:26:28.816Z,66.65
2023-03-07T09:29:00.039Z,66.90
2023-03-07T09:31:28.359Z,67.08
2023-03-07T09:33:58.566Z,66.95
2023-03-07T09:36:28.964Z,66.46
2023-03-07T09:38:58.337Z,66.90
2023-03-07T09:41:54.675Z,67.40
2023-03-07T09:44:39.065Z,67.31
2023-03-07T09:48:00.242Z,67.74
2023-03-07T09:50:37.279Z,66.76
2023-03-07T09:53:14.404Z,66.56
2023-03-07T09:55:44.365Z,66.70
2023-03-07T09:58:17.546Z,66.75
2023-03-07T10:00:47.554Z,66.85
2023-03-07T10:03:28.767Z,67.24
2023-03-07T10:06:01.409Z,66.44
2023-03-07T10:08:35.052Z,66.34
2023-03-07T10:11:18.533Z,65.56
2023-03-07T10:14:01.116Z,65.95
2023-03-07T10:16:37.781Z,65.81
2023-03-07T10:19:16.020Z,64.83
2023-03-07T10:21:53.595Z,64.32
2023-03-07T10:24:52.527Z,65.14
2023-03-07T10:27:26.953Z,64.75
2023-03-07T10:29:57.665Z,65.42
2023-03-07T10:32:34.126Z,64.96
2023-03-07T10:35:17.150Z,64.49
2023-03-07T10:37:53.685Z,64.53
2023-03-07T10:40:27.655Z,63.88
2023-03-07T10:42:58.359Z,63.98
2023-03-07T10:45:31.511Z,63.95
2023-03-07T10:48:01.310Z,63.19
2023-03-07T10:50:39.929Z,63.74
2023-03-07T10:53:21.650Z,64.05
2023-03-07T10:55:53.949Z,63.83
2023-03-07T10:58:25.029Z,64.06
2023-03-07T11:01:20.331Z,63.92
2023-03-07T11:03:55.428Z,62.09
2023-03-07T11:06:34.919Z,62.00
2023-03-07T11:09:17.287Z,61.24
2023-03-07T11:11:56.418Z,60.74
2023-03-07T11:14:26.263Z,59.54
2023-03-07T11:16:57.591Z,59.81
2023-03-07T11:19:42.272Z,59.90
2023-03-07T11:22:25.007Z,59.05
2023-03-07T11:25:01.571Z,59.80
2023-03-07T11:27:40.650Z,59.20
2023-03-07T11:30:19.773Z,61.60
2023-03-07T11:33:09.396Z,62.27
2023-03-07T11:36:00.325Z,61.49
2023-03-07T11:38:37.328Z,61.74
2023-03-07T11:41:12.184Z,61.55
2023-03-07T11:44:00.181Z,61.57
2023-03-07T11:46:40.192Z,60.67
2023-03-07T11:49:27.404Z,60.89
2023-03-07T11:52:10.428Z,60.82
2023-03-07T11:54:50.686Z,60.63
2023-03-07T11:57:31.734Z,60.94
2023-03-07T12:00:21.341Z,60.42
2023-03-07T12:03:20.006Z,60.88
2023-03-07T12:06:07.898Z,61.11
2023-03-07T12:08:52.465Z,60.06
2023-03-07T12:11:47.417Z,59.73
2023-03-07T12:14:24.555Z,59.06
2023-03-07T12:17:07.939Z,58.67
2023-03-07T12:19:55.377Z,56.95
2023-03-07T12:22:29.500Z,55.83
2023-03-07T12:25:09.854Z,55.33
2023-03-07T12:27:43.453Z,49.03
2023-03-07T12:30:20.100Z,44.57
2023-03-07T12:32:51.887Z,43.33
2023-03-07T12:35:28.876Z,41.85
2023-03-07T12:38:06.845Z,41.80
2023-03-07T12:40:42.017Z,40.38
2023-03-07T12:43:21.041Z,39.83
2023-03-07T12:45:57.178Z,39.83
2023-03-07T12:48:39.711Z,42.98
2023-03-07T12:51:18.221Z,40.75
2023-03-07T12:53:51.189Z,39.83
2023-03-07T12:56:22.692Z,38.13
2023-03-07T12:58:56.154Z,36.92
2023-03-07T13:01:29.061Z,37.05
2023-03-07T13:04:08.542Z,37.67
2023-03-07T13:06:42.056Z,37.85
2023-03-07T13:09:19.592Z,39.67
2023-03-07T13:12:25.544Z,42.71
2023-03-07T13:14:55.150Z,43.10
2023-03-07T13:18:01.901Z,43.64
2023-03-07T13:20:44.748Z,43.06
2023-03-07T13:23:28.569Z,42.64
2023-03-07T13:26:13.472Z,44.02
2023-03-07T13:28:52.940Z,48.50
2023-03-07T13:31:39.256Z,50.10
2023-03-07T13:34:46.869Z,51.45
2023-03-07T13:37:57.205Z,51.99
2023-03-07T13:40:58.611Z,52.81
2023-03-07T13:43:58.845Z,53.79
2023-03-07T13:47:01.678Z,53.39
2023-03-07T13:49:48.759Z,53.20
2023-03-07T13:52:40.104Z,52.80
2023-03-07T13:55:46.456Z,52.88
2023-03-07T13:58:28.464Z,53.18
2023-03-07T14:01:01.121Z,52.56
2023-03-07T14:03:34.829Z,52.67
2023-03-07T14:06:12.340Z,52.87
2023-03-07T14:08:42.147Z,52.46
2023-03-07T14:11:23.253Z,51.73
2023-03-07T14:14:21.538Z,51.01
2023-03-07T14:17:05.324Z,50.82
2023-03-07T14:19:52.714Z,49.70
2023-03-07T14:22:35.253Z,48.84
2023-03-07T14:25:39.213Z,50.06
2023-03-07T14:28:22.344Z,51.98
2023-03-07T14:30:58.665Z,52.04
2023-03-07T14:33:33.731Z,52.99
2023-03-07T14:36:03.806Z,53.91
2023-03-07T14:38:34.337Z,53.32
2023-03-07T14:41:29.465Z,54.61
2023-03-07T14:44:09.115Z,54.51
2023-03-07T14:46:59.527Z,54.66
2023-03-07T14:49:36.914Z,53.94
2023-03-07T14:52:06.778Z,53.48
2023-03-07T14:54:38.530Z,52.00
2023-03-07T14:57:22.993Z,51.13
2023-03-07T15:00:13.544Z,51.03
2023-03-07T15:02:48.808Z,50.47
2023-03-07T15:05:20.733Z,51.12
2023-03-07T15:07:49.466Z,51.36
2023-03-07T15:10:25.224Z,51.93
2023-03-07T15:12:57.905Z,52.29
2023-03-07T15:15:34.043Z,52.68
2023-03-07T15:18:08.031Z,53.87
2023-03-07T15:20:37.742Z,54.41
2023-03-07T15:23:09.551Z,54.32
2023-03-07T15:25:40.013Z,55.82
2023-03-07T15:28:19.804Z,56.99
2023-03-07T15:30:55.402Z,57.20
2023-03-07T15:33:25.934Z,56.08
2023-03-07T15:36:19.955Z,55.87
2023-03-07T15:38:50.653Z,55.36
2023-03-07T15:41:34.970Z,54.23
2023-03-07T15:44:23.304Z,54.27
2023-03-07T15:46:56.325Z,53.91
2023-03-07T15:49:27.392Z,53.49
2023-03-07T15:52:02.561Z,53.29
2023-03-07T15:54:36.321Z,52.16
2023-03-07T15:57:10.494Z,51.89
2023-03-07T15:59:45.637Z,51.68
2023-03-07T16:02:37.829Z,51.16
2023-03-07T16:05:10.079Z,50.86
2023-03-07T16:07:39.336Z,49.59
2023-03-07T16:10:10.240Z,50.16
2023-03-07T16:12:46.399Z,51.05
2023-03-07T16:15:17.667Z,51.64
2023-03-07T16:17:53.398Z,50.89
2023-03-07T16:20:24.971Z,50.70
2023-03-07T16:22:55.487Z,50.91
2023-03-07T16:25:28.469Z,52.64
2023-03-07T16:28:00.370Z,53.10
2023-03-07T16:30:34.015Z,54.00
2023-03-07T16:33:05.264Z,54.45
2023-03-07T16:35:35.813Z,55.13
2023-03-07T16:38:07.266Z,55.83
2023-03-07T16:40:38.449Z,56.47
2023-03-07T16:43:32.580Z,56.56
2023-03-07T16:46:05.623Z,55.22
2023-03-07T16:48:37.715Z,54.51
2023-03-07T16:51:08.963Z,55.06
2023-03-07T16:53:38.188Z,54.14
2023-03-07T16:56:11.570Z,54.54
2023-03-07T16:58:43.504Z,54.50
2023-03-07T17:01:17.816Z,54.78
2023-03-07T17:03:51.334Z,55.08
2023-03-07T17:06:25.427Z,55.19
2023-03-07T17:08:56.747Z,56.21
2023-03-07T17:11:29.633Z,56.10
2023-03-07T17:14:00.905Z,56.38
2023-03-07T17:16:33.215Z,56.00
2023-03-07T17:19:04.777Z,56.11
2023-03-07T17:21:34.434Z,55.32
2023-03-07T17:24:03.017Z,55.27
2023-03-07T17:26:34.358Z,55.43
2023-03-07T17:29:08.913Z,55.50
2023-03-07T17:31:39.645Z,54.39
2023-03-07T17:34:19.477Z,54.86
2023-03-07T17:36:48.541Z,54.66
2023-03-07T17:39:17.929Z,55.55
2023-03-07T17:41:47.171Z,55.16
2023-03-07T17:44:17.909Z,55.15
2023-03-07T17:46:48.004Z,55.64
2023-03-07T17:49:19.512Z,55.75
2023-03-07T17:51:49.491Z,54.95
2023-03-07T17:54:25.746Z,54.23
2023-03-07T17:57:04.728Z,54.67
2023-03-07T17:59:35.301Z,55.12
2023-03-07T18:02:05.896Z,55.19
2023-03-07T18:04:36.577Z,55.68
2023-03-07T18:07:06.611Z,54.98
2023-03-07T18:09:35.359Z,55.13
2023-03-07T18:12:05.489Z,55.30
2023-03-07T18:14:35.942Z,55.96
2023-03-07T18:17:06.857Z,56.10
2023-03-07T18:19:39.386Z,56.51
2023-03-07T18:22:08.946Z,56.46
2023-03-07T18:24:37.367Z,55.79
2023-03-07T18:27:09.040Z,56.23
2023-03-07T18:29:39.493Z,56.59
2023-03-07T18:32:09.470Z,56.40
2023-03-07T18:34:41.743Z,56.93
2023-03-07T18:37:11.574Z,56.64
2023-03-07T18:39:42.028Z,56.28
2023-03-07T18:42:12.439Z,56.40
2023-03-07T18:44:41.591Z,55.66
2023-03-07T18:47:10.966Z,55.06
2023-03-07T18:49:41.654Z,55.78
2023-03-07T18:52:10.581Z,55.29
2023-03-07T18:54:40.181Z,56.28
2023-03-07T18:57:09.911Z,56.84
2023-03-07T18:59:38.064Z,58.19
2023-03-07T19:02:07.560Z,58.73
2023-03-07T19:04:37.268Z,58.69
2023-03-07T19:07:08.385Z,58.44
2023-03-07T19:09:38.271Z,58.59
2023-03-07T19:12:08.409Z,58.36
2023-03-07T19:14:38.012Z,58.78
2023-03-07T19:17:07.711Z,58.78
2023-03-07T19:19:36.985Z,58.96
2023-03-07T19:22:07.988Z,59.03
2023-03-07T19:24:37.480Z,59.53
2023-03-07T19:27:07.054Z,60.01
2023-03-07T19:29:36.921Z,60.21
2023-03-07T19:32:08.072Z,60.26
2023-03-07T19:34:38.820Z,60.16
2023-03-07T19:37:10.401Z,60.23
2023-03-07T19:39:40.142Z,60.64
2023-03-07T19:42:08.893Z,61.25
2023-03-07T19:44:38.298Z,61.32
2023-03-07T19:47:07.159Z,62.04
2023-03-07T19:49:36.398Z,62.00
2023-03-07T19:52:06.049Z,61.85
2023-03-07T19:54:36.151Z,61.78
2023-03-07T19:57:09.341Z,62.33
2023-03-07T19:59:38.625Z,62.34
2023-03-07T20:02:09.851Z,63.05
2023-03-07T20:04:38.642Z,63.76
2023-03-07T20:07:09.702Z,64.35
2023-03-07T20:09:40.086Z,65.18
2023-03-07T20:12:11.254Z,65.21
2023-03-07T20:14:44.729Z,65.08
2023-03-07T20:17:14.767Z,65.29
2023-03-07T20:19:44.667Z,65.18
2023-03-07T20:22:13.504Z,65.35
2023-03-07T20:24:44.730Z,65.11
2023-03-07T20:27:20.350Z,65.57
2023-03-07T20:29:50.478Z,65.30
2023-03-07T20:32:20.792Z,65.50
2023-03-07T20:34:54.123Z,65.39
2023-03-07T20:37:24.616Z,65.17
2023-03-07T20:39:57.556Z,65.30
2023-03-07T20:42:27.212Z,65.42
2023-03-07T20:44:56.789Z,65.10
2023-03-07T20:47:25.394Z,65.13
2023-03-07T20:49:55.595Z,65.58
2023-03-07T20:52:25.608Z,65.75
2023-03-07T20:54:56.140Z,65.94
2023-03-07T20:57:25.390Z,66.27
2023-03-07T20:59:54.469Z,66.42
2023-03-07T21:02:23.547Z,66.95
2023-03-07T21:04:52.222Z,66.93
2023-03-07T21:07:21.428Z,66.66
2023-03-07T21:09:51.072Z,66.62
2023-03-07T21:12:21.535Z,66.40
2023-03-07T21:14:50.242Z,66.25
2023-03-07T21:17:18.839Z,65.88
2023-03-07T21:19:47.253Z,66.24
2023-03-07T21:22:16.795Z,65.74
2023-03-07T21:24:45.449Z,65.97
2023-03-07T21:27:14.197Z,66.13
2023-03-07T21:29:43.989Z,65.93
2023-03-07T21:32:13.030Z,65.70
2023-03-07T21:34:41.628Z,65.49
2023-03-07T21:37:11.486Z,65.10
2023-03-07T21:39:40.420Z,65.61
2023-03-07T21:42:10.131Z,66.14
2023-03-07T21:44:38.748Z,65.13
2023-03-07T21:47:10.094Z,65.08
2023-03-07T21:49:38.344Z,64.68
2023-03-07T21:52:09.151Z,64.56
2023-03-07T21:54:38.794Z,64.00
2023-03-07T21:57:08.752Z,63.57
2023-03-07T21:59:38.134Z,63.58
2023-03-07T22:02:09.396Z,63.29
2023-03-07T22:04:38.263Z,63.23
2023-03-07T22:07:08.470Z,63.22
2023-03-07T22:09:38.197Z,63.28
2023-03-07T22:12:09.506Z,63.95
2023-03-07T22:14:39.388Z,63.87
2023-03-07T22:17:12.213Z,63.59
2023-03-07T22:19:41.445Z,63.19
2023-03-07T22:22:11.654Z,62.87
2023-03-07T22:24:43.680Z,63.28
2023-03-07T22:27:12.039Z,63.38
2023-03-07T22:29:40.502Z,63.20
2023-03-07T22:32:10.588Z,63.42
2023-03-07T22:34:40.359Z,63.30
2023-03-07T22:37:10.357Z,63.44
2023-03-07T22:39:40.027Z,63.02
2023-03-07T22:42:09.341Z,63.59
2023-03-07T22:44:37.612Z,64.46
2023-03-07T22:47:06.704Z,65.01
2023-03-07T22:49:36.480Z,64.71
2023-03-07T22:52:05.648Z,64.75
2023-03-07T22:54:39.203Z,64.97
2023-03-07T22:57:07.553Z,65.18
2023-03-07T22:59:35.854Z,65.43
2023-03-07T23:02:05.249Z,65.07
2023-03-07T23:04:33.833Z,64.75
2023-03-07T23:07:04.748Z,64.50
2023-03-07T23:09:34.037Z,63.74
2023-03-07T23:12:02.379Z,63.91
2023-03-07T23:14:30.871Z,64.13
2023-03-07T23:16:58.932Z,63.81
2023-03-07T23:19:27.533Z,63.91
2023-03-07T23:21:56.629Z,63.82
2023-03-07T23:24:26.093Z,63.68
2023-03-07T23:26:54.569Z,63.72
2023-03-07T23:29:23.157Z,63.81
2023-03-07T23:31:52.446Z,63.77
2023-03-07T23:34:22.549Z,63.69
2023-03-07T23:36:51.564Z,63.35
2023-03-07T23:39:20.519Z,63.58
2023-03-07T23:41:50.105Z,63.75
2023-03-07T23:44:18.167Z,63.63
2023-03-07T23:46:47.062Z,63.37
2023-03-07T23:49:15.420Z,63.33
2023-03-07T23:51:44.675Z,63.51
2023-03-07T23:54:12.798Z,63.29
2023-03-07T23:56:41.015Z,63.33
2023-03-07T23:59:10.703Z,63.09
